Time;durP1;ratioP1;P1;durP2;ratioP2;P2;SDS_P1;SDS_P2;PMS_P1;PMS_P2;Temp;Humidity;BMP_temperature;BMP_pressure;BME280_temperature;BME280_humidity;BME280_pressure;Samples;Min_cycle;Max_cycle;Signal;HPM_P1;HPM_P2
2022/12/09 00:01:38;;;;;;;17.30;12.40;;;3.10;99.90;;;;;;5070285;28;20044;-55
2022/12/09 00:04:03;;;;;;;17.40;11.53;;;3.00;99.90;;;;;;5064149;28;20041;-52
2022/12/09 00:06:30;;;;;;;16.73;11.47;;;3.00;99.90;;;;;;5050138;28;20063;-53
2022/12/09 00:08:56;;;;;;;25.27;12.55;;;3.10;99.90;;;;;;5048100;28;20072;-51
2022/12/09 00:11:23;;;;;;;16.80;12.27;;;3.10;99.90;;;;;;5051025;28;20043;-55
2022/12/09 00:13:54;;;;;;;21.60;13.55;;;3.10;99.90;;;;;;5048445;28;20080;-53
2022/12/09 00:16:20;;;;;;;19.95;13.55;;;3.10;99.90;;;;;;5072600;28;20387;-54
2022/12/09 00:18:46;;;;;;;20.38;13.07;;;3.10;99.90;;;;;;5063991;28;20037;-56
2022/12/09 00:21:19;;;;;;;19.13;13.93;;;3.10;99.90;;;;;;5058936;28;20091;-51
2022/12/09 00:23:46;;;;;;;18.13;12.38;;;3.10;99.90;;;;;;5068009;28;20063;-55
2022/12/09 00:26:12;;;;;;;21.40;14.57;;;3.10;99.90;;;;;;5069131;28;20112;-53
2022/12/09 00:28:38;;;;;;;19.55;12.77;;;3.10;99.90;;;;;;5068600;28;20045;-55
2022/12/09 00:31:04;;;;;;;18.83;12.77;;;3.10;99.90;;;;;;5049852;28;20441;-52
2022/12/09 00:33:32;;;;;;;26.58;14.13;;;3.10;99.90;;;;;;5049979;28;20068;-51
2022/12/09 00:36:10;;;;;;;18.42;13.57;;;3.10;99.90;;;;;;5056121;28;20040;-54
2022/12/09 00:38:36;;;;;;;20.00;14.02;;;3.10;99.90;;;;;;5069213;28;20513;-54
2022/12/09 00:41:02;;;;;;;18.50;12.82;;;3.10;99.90;;;;;;5067083;28;20040;-56
2022/12/09 00:43:28;;;;;;;19.13;13.63;;;3.10;99.90;;;;;;5057758;28;20033;-53
2022/12/09 00:45:53;;;;;;;21.37;13.43;;;3.10;99.90;;;;;;5065552;28;20032;-53
2022/12/09 00:48:19;;;;;;;17.83;13.67;;;3.10;99.90;;;;;;5057942;28;20024;-53
2022/12/09 00:50:45;;;;;;;21.57;13.63;;;3.10;99.90;;;;;;5069510;28;20040;-57
2022/12/09 00:53:11;;;;;;;29.25;13.57;;;3.10;99.90;;;;;;5058313;28;20562;-52
2022/12/09 00:55:37;;;;;;;19.48;12.25;;;3.10;99.90;;;;;;5069118;28;20417;-52
2022/12/09 00:58:03;;;;;;;25.23;13.50;;;3.10;99.90;;;;;;5069157;28;20076;-55
2022/12/09 01:00:29;;;;;;;25.92;13.88;;;3.10;99.90;;;;;;5069505;28;20079;-55
2022/12/09 01:02:55;;;;;;;20.13;13.43;;;3.10;99.90;;;;;;5068489;28;20493;-54
2022/12/09 01:05:21;;;;;;;19.53;13.13;;;3.10;99.90;;;;;;5067739;28;20036;-55
2022/12/09 01:07:47;;;;;;;24.17;14.77;;;3.10;99.90;;;;;;5064825;28;20293;-57
2022/12/09 01:10:13;;;;;;;20.17;13.30;;;3.10;99.90;;;;;;5052770;28;20068;-57
2022/12/09 01:12:38;;;;;;;20.88;14.05;;;3.10;99.90;;;;;;5053224;28;20040;-56
2022/12/09 01:15:06;;;;;;;25.00;14.25;;;3.10;99.90;;;;;;5053396;28;20405;-55
2022/12/09 01:17:31;;;;;;;19.80;14.73;;;3.10;99.90;;;;;;5060717;28;20075;-56
2022/12/09 01:19:57;;;;;;;23.03;15.40;;;3.00;99.90;;;;;;5052749;28;20513;-56
2022/12/09 01:22:22;;;;;;;22.73;15.13;;;3.00;99.90;;;;;;5053393;28;20044;-55
2022/12/09 01:24:48;;;;;;;25.73;15.70;;;3.00;99.90;;;;;;5052447;28;20502;-52
2022/12/09 01:27:14;;;;;;;19.10;13.90;;;3.00;99.90;;;;;;5052553;28;20390;-55
2022/12/09 01:29:39;;;;;;;22.30;14.63;;;3.00;99.90;;;;;;5053121;28;20040;-53
2022/12/09 01:32:05;;;;;;;18.03;14.27;;;3.00;99.90;;;;;;5053990;28;20044;-57
2022/12/09 01:34:30;;;;;;;18.83;13.87;;;3.00;99.90;;;;;;5063702;28;20045;-56
2022/12/09 01:36:56;;;;;;;24.47;15.40;;;2.90;99.90;;;;;;5067208;28;20036;-55
2022/12/09 01:39:22;;;;;;;21.77;15.00;;;2.90;99.90;;;;;;5056050;28;20048;-54
2022/12/09 01:41:50;;;;;;;21.03;14.00;;;2.90;99.90;;;;;;5053872;28;20041;-55
2022/12/09 01:44:20;;;;;;;22.25;15.43;;;2.90;99.90;;;;;;5051176;28;20037;-53
2022/12/09 01:46:46;;;;;;;25.13;15.63;;;2.90;99.90;;;;;;5064043;28;20044;-55
2022/12/09 01:49:18;;;;;;;26.85;14.43;;;2.90;99.90;;;;;;5052213;28;20029;-55
2022/12/09 01:51:48;;;;;;;23.30;14.40;;;2.80;99.90;;;;;;5052020;28;20037;-55
2022/12/09 01:54:15;;;;;;;23.25;15.32;;;2.80;99.90;;;;;;5051572;28;20478;-51
2022/12/09 01:56:41;;;;;;;19.02;14.02;;;2.90;99.90;;;;;;5052926;28;20048;-56
2022/12/09 01:59:13;;;;;;;18.90;13.80;;;2.80;99.90;;;;;;5056019;28;20041;-53
2022/12/09 02:01:40;;;;;;;19.98;14.43;;;2.80;99.90;;;;;;5052731;28;20048;-51
2022/12/09 02:04:05;;;;;;;21.05;15.43;;;2.80;99.90;;;;;;5070801;28;20094;-58
2022/12/09 02:06:34;;;;;;;23.93;15.23;;;2.80;99.90;;;;;;5072082;28;20502;-53
2022/12/09 02:08:59;;;;;;;21.92;15.57;;;2.80;99.90;;;;;;5069978;28;20412;-56
2022/12/09 02:11:49;;;;;;;21.57;14.83;;;2.80;99.90;;;;;;5072221;28;20115;-51
2022/12/09 02:14:20;;;;;;;22.63;15.05;;;2.70;99.90;;;;;;5071055;28;20048;-51
2022/12/09 02:17:36;;;;;;;23.42;15.77;;;2.70;99.90;;;;;;5071778;28;20028;-52
2022/12/09 02:20:33;;;;;;;22.60;15.40;;;2.80;99.90;;;;;;5018006;28;20057;-57
2022/12/09 02:23:08;;;;;;;22.15;14.68;;;2.80;99.90;;;;;;5063335;28;20052;-54
2022/12/09 02:25:44;;;;;;;25.23;16.45;;;2.80;99.90;;;;;;5060504;28;20543;-51
2022/12/09 02:28:35;;;;;;;22.42;15.63;;;2.80;99.90;;;;;;5063651;28;20029;-52
2022/12/09 02:31:16;;;;;;;26.42;16.25;;;2.80;99.90;;;;;;5010763;28;20056;-52
2022/12/09 02:34:02;;;;;;;19.92;14.52;;;2.80;99.90;;;;;;5050879;28;20492;-53
2022/12/09 02:36:36;;;;;;;24.60;15.32;;;2.80;99.90;;;;;;5051945;28;20041;-55
2022/12/09 02:39:02;;;;;;;23.05;14.43;;;2.80;99.90;;;;;;5052313;28;20124;-52
2022/12/09 02:41:31;;;;;;;18.40;13.82;;;2.80;99.90;;;;;;5071809;28;20036;-52
2022/12/09 02:44:02;;;;;;;19.58;14.05;;;2.80;99.90;;;;;;5066664;28;20033;-53
2022/12/09 02:46:27;;;;;;;19.55;13.65;;;2.80;99.90;;;;;;5051537;28;20033;-56
2022/12/09 02:48:56;;;;;;;20.35;12.82;;;2.80;99.90;;;;;;5051254;28;20541;-55
2022/12/09 02:51:25;;;;;;;20.98;12.63;;;2.80;99.90;;;;;;5052409;28;20033;-57
2022/12/09 02:53:58;;;;;;;18.65;13.30;;;2.70;99.90;;;;;;5052048;28;20071;-55
2022/12/09 02:56:25;;;;;;;18.52;13.50;;;2.70;99.90;;;;;;5070860;28;20033;-54
2022/12/09 02:58:51;;;;;;;21.45;14.38;;;2.70;99.90;;;;;;5070898;28;20033;-53
2022/12/09 03:01:36;;;;;;;19.00;13.30;;;2.70;99.90;;;;;;5058022;28;20460;-55
2022/12/09 03:04:03;;;;;;;17.10;11.40;;;2.70;99.90;;;;;;5048452;28;20059;-53
2022/12/09 03:06:45;;;;;;;12.70;8.95;;;2.60;99.90;;;;;;5068584;28;20547;-55
2022/12/09 03:09:18;;;;;;;16.90;11.88;;;2.50;99.90;;;;;;5070665;28;20047;-56
2022/12/09 03:11:46;;;;;;;14.23;10.93;;;2.40;99.90;;;;;;5069359;28;20036;-57
2022/12/09 03:14:21;;;;;;;16.33;11.20;;;2.30;99.90;;;;;;5069752;28;20464;-55
2022/12/09 03:16:59;;;;;;;15.13;11.27;;;2.30;99.90;;;;;;5050712;28;20137;-56
2022/12/09 03:19:32;;;;;;;15.90;12.15;;;2.30;99.90;;;;;;5052799;28;20541;-55
2022/12/09 03:22:01;;;;;;;21.75;13.02;;;2.30;99.90;;;;;;5052406;28;20044;-56
2022/12/09 03:24:34;;;;;;;17.60;12.52;;;2.30;99.90;;;;;;5055677;28;20132;-56
2022/12/09 03:27:05;;;;;;;16.25;12.50;;;2.30;99.90;;;;;;5050380;28;20033;-55
2022/12/09 03:29:33;;;;;;;26.45;15.23;;;2.30;99.90;;;;;;5050350;28;20112;-56
2022/12/09 03:31:59;;;;;;;18.30;14.20;;;2.30;99.90;;;;;;5051679;28;20033;-54
2022/12/09 03:34:30;;;;;;;20.07;12.57;;;2.30;99.90;;;;;;5049614;28;20490;-55
2022/12/09 03:36:57;;;;;;;18.55;12.48;;;2.30;99.90;;;;;;5054269;28;20037;-52
2022/12/09 03:39:27;;;;;;;16.10;11.88;;;2.20;99.90;;;;;;5049776;28;20045;-55
2022/12/09 03:41:57;;;;;;;16.65;11.63;;;2.20;99.90;;;;;;5049222;28;20405;-57
2022/12/09 03:44:43;;;;;;;17.90;12.13;;;2.20;99.90;;;;;;5050015;28;20107;-57
2022/12/09 03:47:09;;;;;;;16.45;12.40;;;2.20;99.90;;;;;;5050046;28;20052;-57
2022/12/09 03:49:36;;;;;;;19.45;12.88;;;2.20;99.90;;;;;;5048881;28;20099;-56
2022/12/09 03:52:02;;;;;;;20.88;13.48;;;2.20;99.90;;;;;;5065629;28;20401;-55
2022/12/09 03:54:34;;;;;;;22.73;15.70;;;2.20;99.90;;;;;;5052260;28;20044;-54
2022/12/09 03:57:00;;;;;;;22.40;12.57;;;2.20;99.90;;;;;;5065306;28;20040;-53
2022/12/09 03:59:29;;;;;;;22.23;14.70;;;2.20;99.90;;;;;;5054287;28;20124;-55
2022/12/09 04:01:55;;;;;;;22.13;13.80;;;2.20;99.90;;;;;;5064972;28;20040;-55
2022/12/09 04:04:21;;;;;;;24.40;14.50;;;2.20;99.90;;;;;;5053789;28;20041;-54
2022/12/09 04:06:49;;;;;;;21.38;13.98;;;2.20;99.90;;;;;;5058648;28;20311;-54
2022/12/09 04:09:15;;;;;;;18.30;12.48;;;2.20;99.90;;;;;;5052562;28;20475;-52
2022/12/09 04:11:40;;;;;;;18.53;13.37;;;2.20;99.90;;;;;;5053162;28;20063;-53
2022/12/09 04:14:06;;;;;;;20.23;13.63;;;2.10;99.90;;;;;;5061923;28;20043;-54
2022/12/09 04:16:31;;;;;;;18.67;13.87;;;2.20;99.90;;;;;;5050259;28;20083;-55
2022/12/09 04:18:57;;;;;;;21.60;14.23;;;2.20;99.90;;;;;;5069123;28;20044;-54
2022/12/09 04:21:22;;;;;;;20.13;13.33;;;2.10;99.90;;;;;;5069647;28;20526;-54
2022/12/09 04:23:48;;;;;;;20.03;13.70;;;2.10;99.90;;;;;;5066615;28;20040;-55
2022/12/09 04:26:16;;;;;;;17.83;13.33;;;2.10;99.90;;;;;;5069738;28;20044;-53
2022/12/09 04:28:42;;;;;;;19.48;14.00;;;2.20;99.90;;;;;;5069565;28;20045;-54
2022/12/09 04:31:12;;;;;;;23.40;15.68;;;2.20;99.90;;;;;;5069622;28;20036;-51
2022/12/09 04:33:38;;;;;;;25.98;15.68;;;2.10;99.90;;;;;;5068400;28;20040;-53
2022/12/09 04:36:05;;;;;;;22.50;15.23;;;2.20;99.90;;;;;;5068702;28;20427;-52
2022/12/09 04:38:31;;;;;;;22.35;13.50;;;2.20;99.90;;;;;;5068750;28;20510;-54
2022/12/09 04:40:59;;;;;;;22.03;13.67;;;2.20;99.90;;;;;;5050055;28;20044;-54
2022/12/09 04:43:24;;;;;;;21.20;14.27;;;2.20;99.90;;;;;;5050328;28;20075;-55
2022/12/09 04:45:50;;;;;;;21.03;14.77;;;2.20;99.90;;;;;;5065719;28;20045;-53
2022/12/09 04:48:16;;;;;;;21.80;14.20;;;2.20;99.90;;;;;;5073310;28;20350;-52
2022/12/09 04:50:41;;;;;;;16.23;12.37;;;2.30;99.90;;;;;;5073526;28;20072;-53
2022/12/09 04:53:07;;;;;;;24.53;15.23;;;2.30;99.90;;;;;;5070161;28;20036;-55
2022/12/09 04:55:32;;;;;;;20.87;13.43;;;2.30;99.90;;;;;;5054804;28;20037;-54
2022/12/09 04:57:58;;;;;;;25.07;15.60;;;2.20;99.90;;;;;;5063422;28;20068;-54
2022/12/09 05:00:23;;;;;;;19.30;14.10;;;2.20;99.90;;;;;;5073506;28;20508;-55
2022/12/09 05:02:49;;;;;;;26.52;17.15;;;2.20;99.90;;;;;;5073083;28;20408;-54
2022/12/09 05:05:15;;;;;;;25.60;16.40;;;2.30;99.90;;;;;;5073016;28;20467;-55
2022/12/09 05:07:40;;;;;;;25.10;15.73;;;2.30;99.90;;;;;;5070912;28;20115;-55
2022/12/09 05:10:06;;;;;;;25.70;16.30;;;2.30;99.90;;;;;;5073254;28;20129;-56
2022/12/09 05:12:32;;;;;;;22.80;15.68;;;2.30;99.90;;;;;;5073372;28;20033;-54
2022/12/09 05:14:58;;;;;;;23.83;15.70;;;2.30;99.90;;;;;;5072498;28;20043;-55
2022/12/09 05:17:24;;;;;;;27.27;16.83;;;2.30;99.90;;;;;;5071361;28;20481;-55
2022/12/09 05:19:50;;;;;;;25.20;16.10;;;2.30;99.90;;;;;;5072931;28;20264;-56
2022/12/09 05:22:17;;;;;;;24.02;15.82;;;2.40;99.90;;;;;;5063564;28;20032;-54
2022/12/09 05:24:43;;;;;;;25.77;16.52;;;2.30;99.90;;;;;;5057089;28;20112;-56
2022/12/09 05:27:10;;;;;;;30.27;18.75;;;2.30;99.90;;;;;;5053571;28;20496;-54
2022/12/09 05:29:35;;;;;;;28.08;17.58;;;2.40;99.90;;;;;;5052822;28;20060;-57
2022/12/09 05:32:01;;;;;;;29.33;18.17;;;2.30;99.90;;;;;;5053214;28;20029;-55
2022/12/09 05:34:27;;;;;;;25.00;18.27;;;2.30;99.90;;;;;;5051873;28;20079;-55
2022/12/09 05:36:52;;;;;;;26.40;17.03;;;2.30;99.90;;;;;;5051927;28;20525;-58
2022/12/09 05:39:18;;;;;;;29.13;19.33;;;2.30;99.90;;;;;;5053978;28;20073;-58
2022/12/09 05:41:45;;;;;;;26.33;18.30;;;2.40;99.90;;;;;;5060268;28;20048;-56
2022/12/09 05:44:11;;;;;;;29.83;19.65;;;2.30;99.90;;;;;;5071977;28;20057;-57
2022/12/09 05:46:37;;;;;;;34.80;20.87;;;2.40;99.90;;;;;;5072895;28;20119;-56
2022/12/09 05:49:02;;;;;;;31.57;19.97;;;2.40;99.90;;;;;;5070286;28;20279;-56
2022/12/09 05:51:29;;;;;;;26.70;17.80;;;2.40;99.90;;;;;;5072357;28;20119;-51
2022/12/09 05:53:55;;;;;;;;;;;2.40;99.90;;;;;;5071561;28;20497;-55
2022/12/09 05:56:23;;;;;;;30.02;19.23;;;2.40;99.90;;;;;;5072518;28;19960;-55
2022/12/09 05:58:49;;;;;;;31.60;17.38;;;2.40;99.90;;;;;;5070362;28;20468;-53
2022/12/09 06:01:15;;;;;;;23.80;16.70;;;2.40;99.90;;;;;;5053631;28;20041;-53
2022/12/09 06:03:40;;;;;;;27.45;18.73;;;2.30;99.90;;;;;;5057007;28;20045;-53
2022/12/09 06:06:11;;;;;;;28.00;18.70;;;2.30;99.90;;;;;;5072314;28;20047;-54
2022/12/09 06:08:38;;;;;;;29.88;17.20;;;2.30;99.90;;;;;;5072092;28;20060;-55
2022/12/09 06:11:07;;;;;;;25.33;16.48;;;2.30;99.90;;;;;;5070503;28;20036;-55
2022/12/09 06:13:32;;;;;;;27.17;17.00;;;2.10;99.90;;;;;;5061596;28;20116;-52
2022/12/09 06:16:03;;;;;;;27.33;18.40;;;2.10;99.90;;;;;;5053204;28;20116;-52
2022/12/09 06:18:29;;;;;;;26.08;16.77;;;2.00;99.90;;;;;;5062415;28;20062;-55
2022/12/09 06:20:54;;;;;;;24.57;15.90;;;2.00;99.90;;;;;;5063753;28;20379;-54
2022/12/09 06:23:20;;;;;;;27.57;17.63;;;1.90;99.90;;;;;;5062109;28;20048;-54
2022/12/09 06:25:46;;;;;;;24.70;16.17;;;1.90;99.90;;;;;;5051647;28;20086;-54
2022/12/09 06:28:11;;;;;;;29.13;18.33;;;1.90;99.90;;;;;;5050256;28;20521;-52
2022/12/09 06:30:37;;;;;;;28.50;18.20;;;1.90;99.90;;;;;;5056680;28;20587;-54
2022/12/09 06:33:02;;;;;;;27.93;18.43;;;1.80;99.90;;;;;;5065464;28;20041;-52
2022/12/09 06:35:28;;;;;;;24.73;16.47;;;1.80;99.90;;;;;;5064228;28;20028;-54
2022/12/09 06:37:54;;;;;;;24.17;16.43;;;1.80;99.90;;;;;;5056283;28;20127;-55
2022/12/09 06:40:22;;;;;;;30.00;19.93;;;1.70;99.90;;;;;;5061125;28;20043;-52
2022/12/09 06:42:49;;;;;;;34.97;20.13;;;1.70;99.90;;;;;;5067697;28;20274;-54
2022/12/09 06:45:15;;;;;;;;;;;1.60;99.90;;;;;;5063798;28;20049;-55
2022/12/09 06:47:41;;;;;;;31.67;18.35;;;1.60;99.90;;;;;;5061484;28;19931;-53
2022/12/09 06:50:08;;;;;;;29.13;19.07;;;1.60;99.90;;;;;;5051951;28;20037;-53
2022/12/09 06:52:36;;;;;;;29.80;18.10;;;1.60;99.90;;;;;;5084210;28;20146;-51
2022/12/09 06:55:02;;;;;;;29.60;18.80;;;1.50;99.90;;;;;;5081787;28;20068;-54
2022/12/09 06:57:28;;;;;;;29.83;18.95;;;1.50;99.90;;;;;;5070842;28;20115;-54
2022/12/09 06:59:53;;;;;;;33.58;21.02;;;1.50;99.90;;;;;;5070906;28;20531;-55
2022/12/09 07:02:19;;;;;;;30.80;19.73;;;1.50;99.90;;;;;;5070808;28;20067;-55
2022/12/09 07:04:45;;;;;;;34.35;23.48;;;1.40;99.90;;;;;;5082730;28;20433;-56
2022/12/09 07:07:10;;;;;;;34.33;19.83;;;1.40;99.90;;;;;;5068625;28;20040;-55
2022/12/09 07:09:36;;;;;;;36.17;21.17;;;1.30;99.90;;;;;;5049822;28;20271;-52
2022/12/09 07:12:02;;;;;;;36.88;21.77;;;1.30;99.90;;;;;;5051260;28;20094;-51
2022/12/09 07:14:27;;;;;;;26.77;16.83;;;1.30;99.90;;;;;;5050088;28;20154;-55
2022/12/09 07:16:53;;;;;;;42.33;16.53;;;1.20;99.90;;;;;;5050604;28;20051;-57
2022/12/09 07:19:21;;;;;;;22.20;15.00;;;1.10;99.90;;;;;;5051244;28;20488;-55
2022/12/09 07:21:50;;;;;;;28.25;16.98;;;1.00;99.90;;;;;;5050331;28;20227;-58
2022/12/09 07:24:17;;;;;;;33.15;21.45;;;1.00;99.90;;;;;;5048550;28;20041;-56
2022/12/09 07:26:42;;;;;;;24.20;15.23;;;1.00;99.90;;;;;;5051072;28;20041;-55
2022/12/09 07:29:08;;;;;;;24.00;15.27;;;0.90;99.90;;;;;;5050311;28;20055;-52
2022/12/09 07:31:34;;;;;;;28.48;18.50;;;0.80;99.90;;;;;;5050882;28;20258;-56
2022/12/09 07:34:01;;;;;;;29.38;17.20;;;0.70;99.90;;;;;;5066525;28;20053;-55
2022/12/09 07:36:29;;;;;;;;;;;0.70;99.90;;;;;;5070786;28;20120;-55
2022/12/09 07:38:59;;;;;;;29.05;17.95;;;0.60;99.90;;;;;;5069983;28;20397;-56
2022/12/09 07:41:25;;;;;;;37.20;22.20;;;0.60;99.90;;;;;;5059058;28;20033;-55
2022/12/09 07:43:51;;;;;;;40.50;25.07;;;0.60;99.90;;;;;;5068789;28;20379;-56
2022/12/09 07:46:18;;;;;;;41.47;23.63;;;0.70;99.90;;;;;;5066533;28;20055;-55
2022/12/09 07:48:45;;;;;;;34.83;20.05;;;0.70;99.90;;;;;;5052059;28;20036;-58
2022/12/09 07:51:11;;;;;;;33.58;20.35;;;0.80;99.90;;;;;;5067285;28;20032;-55
2022/12/09 07:53:37;;;;;;;43.50;25.50;;;0.80;99.90;;;;;;5061311;28;20102;-55
2022/12/09 07:56:05;;;;;;;40.80;24.00;;;0.80;99.90;;;;;;5049977;28;20047;-57
2022/12/09 07:58:32;;;;;;;38.10;23.90;;;0.90;99.90;;;;;;5063195;28;20154;-54
2022/12/09 08:01:11;;;;;;;40.90;24.63;;;0.80;99.90;;;;;;5083428;28;20040;-51
2022/12/09 08:03:38;;;;;;;46.55;28.05;;;0.90;99.90;;;;;;5073807;28;20183;-53
2022/12/09 08:06:04;;;;;;;53.92;27.95;;;0.90;99.90;;;;;;5069806;28;20036;-51
2022/12/09 08:08:30;;;;;;;48.25;26.98;;;0.90;99.90;;;;;;5061998;28;20040;-52
2022/12/09 08:11:04;;;;;;;43.10;25.98;;;1.00;99.90;;;;;;5061947;28;20040;-51
2022/12/09 08:13:29;;;;;;;42.83;26.52;;;1.00;99.90;;;;;;5065140;28;20044;-54
2022/12/09 08:16:00;;;;;;;53.60;30.17;;;1.00;99.90;;;;;;5059319;28;20040;-55
2022/12/09 08:18:25;;;;;;;51.67;30.48;;;1.00;99.90;;;;;;5068466;28;20045;-52
2022/12/09 08:20:51;;;;;;;66.77;34.33;;;1.10;99.90;;;;;;5062631;28;20033;-53
2022/12/09 08:23:16;;;;;;;55.60;33.03;;;1.10;99.90;;;;;;5059376;28;20041;-54
2022/12/09 08:25:42;;;;;;;56.33;32.57;;;1.10;99.90;;;;;;5049736;28;20041;-54
2022/12/09 08:28:07;;;;;;;65.77;35.63;;;1.20;99.90;;;;;;5063507;28;20028;-52
2022/12/09 08:30:34;;;;;;;70.00;37.53;;;1.10;99.90;;;;;;5066684;28;20405;-54
2022/12/09 08:33:00;;;;;;;70.90;36.83;;;1.20;99.90;;;;;;5058110;28;20477;-59
2022/12/09 08:35:28;;;;;;;70.13;37.77;;;1.20;99.90;;;;;;5069123;28;20126;-55
2022/12/09 08:37:54;;;;;;;77.55;39.40;;;1.30;99.90;;;;;;5068880;28;20049;-51
2022/12/09 08:40:19;;;;;;;63.50;37.60;;;1.50;99.90;;;;;;5066353;28;20531;-53
2022/12/09 08:42:45;;;;;;;64.33;36.77;;;1.80;99.90;;;;;;5066799;28;20337;-54
2022/12/09 08:45:10;;;;;;;59.07;33.87;;;2.10;99.90;;;;;;5067724;28;20074;-57
2022/12/09 08:47:36;;;;;;;56.40;31.87;;;2.50;99.90;;;;;;5068545;28;20109;-53
2022/12/09 08:50:02;;;;;;;55.93;33.57;;;2.80;99.90;;;;;;5068574;28;20066;-55
2022/12/09 08:52:28;;;;;;;50.85;32.80;;;3.10;99.90;;;;;;5053132;28;20189;-55
2022/12/09 08:54:53;;;;;;;54.37;33.93;;;3.40;99.90;;;;;;5047253;28;20139;-55
2022/12/09 08:57:23;;;;;;;47.70;30.63;;;3.60;99.90;;;;;;5049080;28;20568;-53
2022/12/09 08:59:49;;;;;;;53.25;32.28;;;3.60;99.90;;;;;;5054088;28;20040;-56
2022/12/09 09:02:14;;;;;;;66.90;38.33;;;3.40;99.90;;;;;;5055034;28;20047;-54
2022/12/09 09:04:40;;;;;;;65.05;35.90;;;3.20;99.90;;;;;;5047029;28;20079;-55
2022/12/09 09:07:06;;;;;;;75.27;41.77;;;3.00;99.90;;;;;;5048883;28;20064;-54
2022/12/09 09:09:31;;;;;;;75.47;39.03;;;2.80;99.90;;;;;;5049826;28;20464;-52
2022/12/09 09:11:57;;;;;;;71.73;38.63;;;2.60;99.90;;;;;;5049271;28;20445;-56
2022/12/09 09:14:22;;;;;;;72.73;39.80;;;2.50;99.90;;;;;;5067857;28;20566;-55
2022/12/09 09:16:48;;;;;;;80.70;40.20;;;2.50;99.90;;;;;;5054575;28;20049;-59
2022/12/09 09:19:16;;;;;;;187.10;42.60;;;2.40;99.90;;;;;;5051114;28;20047;-55
2022/12/09 09:21:41;;;;;;;561.95;78.30;;;2.30;99.90;;;;;;5054065;28;20041;-55
2022/12/09 09:24:09;;;;;;;474.67;65.63;;;2.20;99.90;;;;;;5046617;28;20094;-55
2022/12/09 09:26:38;;;;;;;324.13;49.88;;;2.20;99.90;;;;;;5051405;28;21020;-56
2022/12/09 09:29:04;;;;;;;521.30;70.88;;;2.10;99.90;;;;;;5049085;28;20855;-51
2022/12/09 09:31:29;;;;;;;350.10;55.17;;;2.10;99.90;;;;;;5060721;28;20553;-57
2022/12/09 09:33:55;;;;;;;482.10;68.90;;;2.10;99.90;;;;;;5058667;28;20045;-55
2022/12/09 09:36:22;;;;;;;332.50;53.20;;;2.00;99.90;;;;;;5059114;28;20087;-52
2022/12/09 09:38:50;;;;;;;223.57;45.67;;;2.00;99.90;;;;;;5059205;28;20041;-54
2022/12/09 09:41:19;;;;;;;303.15;55.53;;;2.00;99.90;;;;;;5054697;28;20167;-54
2022/12/09 09:43:46;;;;;;;136.45;43.33;;;1.90;99.90;;;;;;5050317;28;20522;-53
2022/12/09 09:46:24;;;;;;;211.55;45.15;;;1.90;99.90;;;;;;5057971;28;20100;-57
2022/12/09 09:48:51;;;;;;;486.52;76.70;;;1.90;99.90;;;;;;5050133;28;20090;-57
2022/12/09 09:51:19;;;;;;;429.60;69.75;;;1.90;99.90;;;;;;5054703;28;20025;-54
2022/12/09 09:53:51;;;;;;;309.05;63.85;;;1.90;99.90;;;;;;5050679;28;20422;-57
2022/12/09 09:56:35;;;;;;;174.50;55.38;;;1.90;99.90;;;;;;5053033;28;20059;-55
2022/12/09 09:59:48;;;;;;;133.70;53.38;;;1.90;99.90;;;;;;5050950;28;20117;-54
2022/12/09 10:02:28;;;;;;;128.13;53.03;;;1.90;99.90;;;;;;5062369;28;20123;-53
2022/12/09 10:05:12;;;;;;;92.10;46.63;;;2.00;99.90;;;;;;5059696;28;20309;-54
2022/12/09 10:07:41;;;;;;;70.28;36.85;;;2.20;99.90;;;;;;5069486;28;20036;-54
2022/12/09 10:10:19;;;;;;;76.05;37.50;;;2.70;99.90;;;;;;5062841;28;20028;-53
2022/12/09 10:13:19;;;;;;;58.63;34.13;;;3.50;99.90;;;;;;5061194;28;20067;-53
2022/12/09 10:15:58;;;;;;;59.90;33.15;;;4.50;99.90;;;;;;5063007;28;20524;-56
2022/12/09 10:18:38;;;;;;;53.38;33.55;;;5.20;99.90;;;;;;5068278;28;20040;-52
2022/12/09 10:21:15;;;;;;;50.75;32.30;;;5.60;99.90;;;;;;5054122;28;20040;-53
2022/12/09 10:23:42;;;;;;;53.00;33.50;;;5.60;99.90;;;;;;5068241;28;20170;-54
2022/12/09 10:26:16;;;;;;;51.50;33.13;;;5.50;99.90;;;;;;5065873;28;20555;-54
2022/12/09 10:28:46;;;;;;;47.55;30.00;;;5.90;99.90;;;;;;5053939;28;20576;-55
2022/12/09 10:31:12;;;;;;;45.55;30.15;;;6.40;99.90;;;;;;5068000;28;20039;-55
2022/12/09 10:33:39;;;;;;;49.03;31.70;;;6.70;99.90;;;;;;5053477;28;20040;-55
2022/12/09 10:36:17;;;;;;;48.65;30.58;;;6.50;99.90;;;;;;5055998;28;20045;-56
2022/12/09 10:38:43;;;;;;;47.22;31.60;;;6.10;99.90;;;;;;5064975;28;20044;-56
2022/12/09 10:43:33;;;;;;;50.92;32.20;;;5.80;99.90;;;;;;5059659;28;20044;-58
2022/12/09 10:44:25;;;;;;;51.60;32.22;;;5.50;99.90;;;;;;5052115;28;20048;-54
2022/12/09 10:47:06;;;;;;;50.90;30.75;;;5.10;99.90;;;;;;5052124;28;20099;-57
2022/12/09 10:49:33;;;;;;;51.67;29.67;;;4.80;99.90;;;;;;5062454;28;20040;-56
2022/12/09 10:51:59;;;;;;;50.80;30.70;;;4.50;99.90;;;;;;5054046;28;20442;-57
2022/12/09 10:54:34;;;;;;;48.92;29.73;;;4.30;99.90;;;;;;5062174;28;20040;-51
2022/12/09 10:57:10;;;;;;;51.17;30.55;;;4.10;99.90;;;;;;5065164;28;20544;-57
2022/12/09 10:59:37;;;;;;;54.27;31.90;;;3.90;99.90;;;;;;5061451;28;20607;-54
2022/12/09 11:02:08;;;;;;;49.88;31.05;;;3.90;99.90;;;;;;5062914;28;20036;-55
2022/12/09 11:04:43;;;;;;;46.45;29.23;;;3.70;99.90;;;;;;5054996;28;20049;-55
2022/12/09 11:07:11;;;;;;;46.40;29.08;;;3.60;99.90;;;;;;5052328;28;20112;-55
2022/12/09 11:09:57;;;;;;;47.45;28.27;;;3.60;99.90;;;;;;5055682;28;20036;-54
2022/12/09 11:12:26;;;;;;;48.20;28.55;;;3.60;99.90;;;;;;5041060;28;20097;-54
2022/12/09 11:14:54;;;;;;;44.33;26.80;;;3.50;99.90;;;;;;5059053;28;20044;-54
2022/12/09 11:17:26;;;;;;;48.47;29.27;;;3.50;99.90;;;;;;5055876;28;20047;-58
2022/12/09 11:20:09;;;;;;;46.80;28.10;;;3.50;99.90;;;;;;5057954;28;20466;-54
2022/12/09 11:22:43;;;;;;;41.53;26.05;;;3.40;99.90;;;;;;5044283;28;20048;-57
2022/12/09 11:25:12;;;;;;;43.00;26.80;;;3.40;99.90;;;;;;5051194;28;20042;-55
2022/12/09 11:27:51;;;;;;;51.40;29.23;;;3.30;99.90;;;;;;5048980;28;20080;-54
2022/12/09 11:30:26;;;;;;;48.15;27.05;;;3.30;99.90;;;;;;5056209;28;20104;-58
2022/12/09 11:32:54;;;;;;;40.67;24.42;;;3.30;99.90;;;;;;5048548;28;20498;-55
2022/12/09 11:35:30;;;;;;;40.05;25.13;;;3.30;99.90;;;;;;5061860;28;20381;-52
2022/12/09 11:38:01;;;;;;;44.70;24.63;;;3.30;99.90;;;;;;5060144;28;20036;-55
2022/12/09 11:40:27;;;;;;;45.22;24.65;;;3.20;99.90;;;;;;5069712;28;20063;-56
2022/12/09 11:42:55;;;;;;;43.85;26.42;;;3.20;99.90;;;;;;5055286;28;20083;-60
2022/12/09 11:45:20;;;;;;;40.33;25.58;;;3.20;99.90;;;;;;5065736;28;20111;-55
2022/12/09 11:47:46;;;;;;;41.47;26.00;;;3.20;99.90;;;;;;5069846;28;20086;-52
2022/12/09 11:50:23;;;;;;;44.25;25.98;;;3.20;99.90;;;;;;5069821;28;20048;-52
2022/12/09 11:53:11;;;;;;;42.60;24.40;;;3.20;99.90;;;;;;5068613;28;20033;-54
2022/12/09 11:55:42;;;;;;;39.20;24.08;;;3.20;99.90;;;;;;5051782;28;20603;-57
2022/12/09 11:58:29;;;;;;;42.92;26.02;;;3.20;99.90;;;;;;5050042;28;20049;-54
2022/12/09 12:01:18;;;;;;;45.33;24.52;;;3.20;99.90;;;;;;5066141;28;20524;-53
2022/12/09 12:03:51;;;;;;;47.35;25.63;;;3.20;99.90;;;;;;5064420;28;20085;-56
2022/12/09 12:06:23;;;;;;;47.65;27.00;;;3.20;99.90;;;;;;5060479;28;20047;-54
2022/12/09 12:08:52;;;;;;;43.33;24.77;;;3.20;99.90;;;;;;5069748;28;20105;-54
2022/12/09 12:11:25;;;;;;;44.63;24.92;;;3.20;99.90;;;;;;5069725;28;20045;-57
2022/12/09 12:13:58;;;;;;;43.75;24.58;;;3.30;99.90;;;;;;5068411;28;20059;-54
2022/12/09 12:16:33;;;;;;;40.35;25.13;;;3.20;99.90;;;;;;5068966;28;20110;-55
2022/12/09 12:19:12;;;;;;;46.03;25.33;;;3.20;99.90;;;;;;5069051;28;20108;-54
2022/12/09 12:21:59;;;;;;;46.55;25.45;;;3.20;99.90;;;;;;5066267;28;20041;-57
2022/12/09 12:24:50;;;;;;;45.95;26.27;;;3.30;99.90;;;;;;5048333;28;20045;-54
2022/12/09 12:27:45;;;;;;;41.20;25.42;;;3.20;99.90;;;;;;5049754;28;20036;-52
2022/12/09 12:30:26;;;;;;;43.42;24.45;;;3.20;99.90;;;;;;5049615;28;20561;-52
2022/12/09 12:33:01;;;;;;;42.38;24.85;;;3.20;99.90;;;;;;5053786;28;20105;-58
2022/12/09 12:35:35;;;;;;;35.28;21.13;;;3.20;99.90;;;;;;5069955;28;20215;-55
2022/12/09 12:38:20;;;;;;;32.38;19.65;;;3.20;99.90;;;;;;5054267;28;20045;-55
2022/12/09 12:41:00;;;;;;;35.05;21.00;;;3.20;99.90;;;;;;5050174;28;20037;-52
2022/12/09 12:46:45;;;;;;;34.50;19.88;;;3.20;99.90;;;;;;5068739;28;20040;-52
2022/12/09 12:49:33;;;;;;;30.92;19.00;;;3.20;99.90;;;;;;5061300;28;20036;-53
2022/12/09 12:52:10;;;;;;;34.25;18.95;;;3.20;99.90;;;;;;5051085;28;20041;-55
2022/12/09 12:55:03;;;;;;;38.42;20.08;;;3.20;99.90;;;;;;5066852;28;20048;-55